createdAt,value
2016-02-19T00:00:29.047Z,85.96
2016-02-19T00:01:29.033Z,85.96
2016-02-19T00:02:29.036Z,85.86
2016-02-19T00:03:29.039Z,85.68
2016-02-19T00:04:29.026Z,85.77
2016-02-19T00:05:29.029Z,85.86
2016-02-19T00:06:29.032Z,86.05
2016-02-19T00:07:29.034Z,86.05
2016-02-19T00:08:29.038Z,85.86
2016-02-19T00:09:29.040Z,85.68
2016-02-19T00:10:29.027Z,85.86
2016-02-19T00:11:29.029Z,85.77
2016-02-19T00:12:29.016Z,85.86
2016-02-19T00:13:29.035Z,85.96
2016-02-19T00:14:29.021Z,86.05
2016-02-19T00:15:29.024Z,85.86
2016-02-19T00:16:29.026Z,85.77
2016-02-19T00:17:29.014Z,85.77
2016-02-19T00:18:29.017Z,85.86
2016-02-19T00:19:29.020Z,86.05
2016-02-19T00:20:29.022Z,85.58
2016-02-19T00:21:29.025Z,85.77
2016-02-19T00:22:29.012Z,86.52
2016-02-19T00:23:29.014Z,86.43
2016-02-19T00:24:29.017Z,86.24
2016-02-19T00:25:29.020Z,86.24
2016-02-19T00:26:29.022Z,86.15
2016-02-19T00:27:29.026Z,86.24
2016-02-19T00:28:29.044Z,86.05
2016-02-19T00:29:29.015Z,86.52
2016-02-19T00:30:29.021Z,86.62
2016-02-19T00:31:28.853Z,86.62
2016-02-19T00:32:29.012Z,86.71
2016-02-19T00:33:29.015Z,86.33
2016-02-19T00:34:29.001Z,86.33
2016-02-19T00:35:29.003Z,86.71
2016-02-19T00:36:28.992Z,86.24
2016-02-19T00:37:28.994Z,86.24
2016-02-19T00:38:28.996Z,86.05
2016-02-19T00:39:29.000Z,86.71
2016-02-19T00:40:29.002Z,86.62
2016-02-19T00:41:29.005Z,86.8
2016-02-19T00:42:28.992Z,86.62
2016-02-19T00:43:28.994Z,86.62
2016-02-19T00:44:28.997Z,86.62
2016-02-19T00:45:29.000Z,86.71
2016-02-19T00:46:28.986Z,86.62
2016-02-19T00:47:29.005Z,86.33
2016-02-19T00:48:28.991Z,86.8
2016-02-19T00:49:28.995Z,86.9
2016-02-19T00:50:28.982Z,86.9
2016-02-19T00:51:28.985Z,86.8
2016-02-19T00:52:28.988Z,86.9
2016-02-19T00:53:28.990Z,86.9
2016-02-19T00:54:28.993Z,87.18
2016-02-19T00:55:28.980Z,87.28
2016-02-19T00:56:28.982Z,87.47
2016-02-19T00:57:28.985Z,87.09
2016-02-19T00:58:28.988Z,87.37
2016-02-19T00:59:28.974Z,88.04
2016-02-19T01:00:28.977Z,87.94
2016-02-19T01:01:29.074Z,87.85
2016-02-19T01:02:28.967Z,87.66
2016-02-19T01:03:28.970Z,87.85
2016-02-19T01:04:28.973Z,87.7
2016-02-19T01:05:28.968Z,87.98
2016-02-19T01:06:28.971Z,87.7
2016-02-19T01:07:28.974Z,87.98
2016-02-19T01:08:28.960Z,87.98
2016-02-19T01:09:28.963Z,87.89
2016-02-19T01:10:28.966Z,87.98
2016-02-19T01:11:28.968Z,87.89
2016-02-19T01:12:28.956Z,87.89
2016-02-19T01:13:28.959Z,87.13
2016-02-19T01:14:28.962Z,87.51
2016-02-19T01:15:28.948Z,87.51
2016-02-19T01:16:28.951Z,87.51
2016-02-19T01:17:28.954Z,87.51
2016-02-19T01:18:28.956Z,87.51
2016-02-19T01:19:28.959Z,87.51
2016-02-19T01:20:28.945Z,87.7
2016-02-19T01:21:28.948Z,87.32
2016-02-19T01:22:28.952Z,87.51
2016-02-19T01:23:28.939Z,87.51
2016-02-19T01:24:28.941Z,87.51
2016-02-19T01:25:28.945Z,87.13
2016-02-19T01:26:28.947Z,88.08
2016-02-19T01:27:28.950Z,88.08
2016-02-19T01:28:28.936Z,87.89
2016-02-19T01:29:28.939Z,87.89
2016-02-19T01:30:28.942Z,87.89
2016-02-19T01:31:28.930Z,88.08
2016-02-19T01:32:28.933Z,87.98
2016-02-19T01:33:28.950Z,87.98
2016-02-19T01:34:28.937Z,88.08
2016-02-19T01:35:28.924Z,88.27
2016-02-19T01:36:28.927Z,88.17
2016-02-19T01:37:28.929Z,88.55
2016-02-19T01:38:28.932Z,88.55
2016-02-19T01:39:28.919Z,88.65
2016-02-19T01:40:28.921Z,88.74
2016-02-19T01:41:28.925Z,88.65
2016-02-19T01:42:28.912Z,88.55
2016-02-19T01:43:28.929Z,88.55
2016-02-19T01:44:28.918Z,88.55
2016-02-19T01:45:28.935Z,88.5
2016-02-19T01:46:28.938Z,88.98
2016-02-19T01:47:28.941Z,88.69
2016-02-19T01:48:28.943Z,88.6
2016-02-19T01:49:28.915Z,88.69
2016-02-19T01:50:28.918Z,88.22
2016-02-19T01:51:28.983Z,88.41
2016-02-19T01:52:28.907Z,88.12
2016-02-19T01:53:28.910Z,88.12
2016-02-19T01:54:28.913Z,88.12
2016-02-19T01:55:28.915Z,88.12
2016-02-19T01:56:28.918Z,88.03
2016-02-19T01:57:28.905Z,88.31
2016-02-19T01:58:28.908Z,88.5
2016-02-19T01:59:28.910Z,88.03
2016-02-19T02:00:28.928Z,88.12
2016-02-19T02:01:28.900Z,88.12
2016-02-19T02:02:28.902Z,88.12
2016-02-19T02:03:28.905Z,88.12
2016-02-19T02:04:28.893Z,87.65
2016-02-19T02:05:28.911Z,87.74
2016-02-19T02:06:28.898Z,88.03
2016-02-19T02:07:28.885Z,87.93
2016-02-19T02:08:28.888Z,87.93
2016-02-19T02:09:28.891Z,87.93
2016-02-19T02:10:28.893Z,87.93
2016-02-19T02:11:28.896Z,87.84
2016-02-19T02:12:28.882Z,87.46
2016-02-19T02:13:28.886Z,87.55
2016-02-19T02:14:28.904Z,87.55
2016-02-19T02:15:28.875Z,87.65
2016-02-19T02:16:28.894Z,87.55
2016-02-19T02:17:28.881Z,87.65
2016-02-19T02:18:28.884Z,87.37
2016-02-19T02:19:28.887Z,87.41
2016-02-19T02:20:28.889Z,87.18
2016-02-19T02:21:28.892Z,87.13
2016-02-19T02:22:28.879Z,86.94
2016-02-19T02:23:28.882Z,87.04
2016-02-19T02:24:28.884Z,87.04
2016-02-19T02:25:28.870Z,87.04
2016-02-19T02:26:28.873Z,86.75
2016-02-19T02:27:28.876Z,86.75
2016-02-19T02:28:28.864Z,87.04
2016-02-19T02:29:28.882Z,86.85
2016-02-19T02:30:28.869Z,86.75
2016-02-19T02:31:28.871Z,86.66
2016-02-19T02:32:28.859Z,86.85
2016-02-19T02:33:28.877Z,86.71
2016-02-19T02:34:28.863Z,86.52
2016-02-19T02:35:28.867Z,85.99
2016-02-19T02:36:28.869Z,86.42
2016-02-19T02:37:28.888Z,86.52
2016-02-19T02:38:28.859Z,85.99
2016-02-19T02:39:28.877Z,86.14
2016-02-19T02:40:28.865Z,85.8
2016-02-19T02:41:28.867Z,85.95
2016-02-19T02:42:28.855Z,86.18
2016-02-19T02:43:28.773Z,86.09
2016-02-19T02:44:28.864Z,86.09
2016-02-19T02:45:28.859Z,85.9
2016-02-19T02:46:29.250Z,86.09
2016-02-19T02:47:28.846Z,85.9
2016-02-19T02:48:28.942Z,85.52
2016-02-19T02:49:28.851Z,85.8
2016-02-19T02:50:28.854Z,85.9
2016-02-19T02:51:28.857Z,85.9
2016-02-19T02:52:28.844Z,85.61
2016-02-19T02:53:28.847Z,85.71
2016-02-19T02:54:28.865Z,85.52
2016-02-19T02:55:28.846Z,85.52
2016-02-19T02:56:28.848Z,85.33
2016-02-19T02:57:28.835Z,85.33
2016-02-19T02:58:28.853Z,85.42
2016-02-19T02:59:28.856Z,85.52
2016-02-19T03:00:28.842Z,85.61
2016-02-19T03:01:28.846Z,85.52
2016-02-19T03:02:28.848Z,85.71
2016-02-19T03:03:28.836Z,85.71
2016-02-19T03:04:28.838Z,85.33
2016-02-19T03:05:28.841Z,84.95
2016-02-19T03:06:28.828Z,84.95
2016-02-19T03:07:28.831Z,84.95
2016-02-19T03:08:28.834Z,85.14
2016-02-19T03:09:28.836Z,85.24
2016-02-19T03:10:28.838Z,84.95
2016-02-19T03:11:28.826Z,84.77
2016-02-19T03:12:28.829Z,84.77
2016-02-19T03:13:28.831Z,84.95
2016-02-19T03:14:28.834Z,84.67
2016-02-19T03:15:28.821Z,84.67
2016-02-19T03:16:28.823Z,84.67
2016-02-19T03:17:28.827Z,84.67
2016-02-19T03:18:28.829Z,84.67
2016-02-19T03:19:28.816Z,84.77
2016-02-19T03:20:28.834Z,84.77
2016-02-19T03:21:28.821Z,84.67
2016-02-19T03:22:28.824Z,84.67
2016-02-19T03:23:28.826Z,84.2
2016-02-19T03:24:28.814Z,84.29
2016-02-19T03:25:28.832Z,84.33
2016-02-19T03:26:28.819Z,84.23
2016-02-19T03:27:28.823Z,84.01
2016-02-19T03:28:28.809Z,84.01
2016-02-19T03:29:28.811Z,84.23
2016-02-19T03:30:28.814Z,83.72
2016-02-19T03:31:28.801Z,83.86
2016-02-19T03:32:28.820Z,84.01
2016-02-19T03:33:28.806Z,83.91
2016-02-19T03:34:28.809Z,84.14
2016-02-19T03:35:28.812Z,84.1
2016-02-19T03:36:28.814Z,84.1
2016-02-19T03:37:28.803Z,84.05
2016-02-19T03:38:28.805Z,83.95
2016-02-19T03:39:28.808Z,83.67
2016-02-19T03:40:28.810Z,83.39
2016-02-19T03:41:28.797Z,83.58
2016-02-19T03:42:28.799Z,83.58
2016-02-19T03:43:28.802Z,83.58
2016-02-19T03:44:28.805Z,83.86
2016-02-19T03:45:28.792Z,83.76
2016-02-19T03:46:28.842Z,83.58
2016-02-19T03:47:28.798Z,83.76
2016-02-19T03:48:28.801Z,83.67
2016-02-19T03:49:28.803Z,83.86
2016-02-19T03:50:28.790Z,83.76
2016-02-19T03:51:28.793Z,83.58
2016-02-19T03:52:28.811Z,83.76
2016-02-19T03:53:28.798Z,83.76
2016-02-19T03:54:28.785Z,83.76
2016-02-19T03:55:28.803Z,84.05
2016-02-19T03:56:28.791Z,83.76
2016-02-19T03:57:28.793Z,83.67
2016-02-19T03:58:28.796Z,83.76
2016-02-19T03:59:28.783Z,83.48
2016-02-19T04:00:28.786Z,83.39
2016-02-19T04:01:28.789Z,83.39
2016-02-19T04:02:28.791Z,83.58
2016-02-19T04:03:28.794Z,83.58
2016-02-19T04:04:28.781Z,83.58
2016-02-19T04:05:28.783Z,83.58
2016-02-19T04:06:28.802Z,83.76
2016-02-19T04:07:28.789Z,83.48
2016-02-19T04:08:28.791Z,83.48
2016-02-19T04:09:28.778Z,83.76
2016-02-19T04:10:28.781Z,83.58
2016-02-19T04:11:28.783Z,83.76
2016-02-19T04:12:28.771Z,83.76
2016-02-19T04:13:28.774Z,83.76
2016-02-19T04:14:28.777Z,83.67
2016-02-19T04:15:28.784Z,83.76
2016-02-19T04:16:28.771Z,83.76
2016-02-19T04:17:28.774Z,83.76
2016-02-19T04:18:28.776Z,83.58
2016-02-19T04:19:28.763Z,83.58
2016-02-19T04:20:28.766Z,83.76
2016-02-19T04:21:28.768Z,83.76
2016-02-19T04:22:28.771Z,83.39
2016-02-19T04:23:28.774Z,83.58
2016-02-19T04:24:28.777Z,83.58
2016-02-19T04:25:28.764Z,83.58
2016-02-19T04:26:28.782Z,83.67
2016-02-19T04:27:28.784Z,83.58
2016-02-19T04:28:28.756Z,83.67
2016-02-19T04:29:28.774Z,83.95
2016-02-19T04:30:28.778Z,83.67
2016-02-19T04:31:28.764Z,83.58
2016-02-19T04:32:28.767Z,83.95
2016-02-19T04:33:28.755Z,83.95
2016-02-19T04:34:28.772Z,83.48
2016-02-19T04:35:28.760Z,83.95
2016-02-19T04:36:28.778Z,84.14
2016-02-19T04:37:28.765Z,84.14
2016-02-19T04:38:28.799Z,84.05
2016-02-19T04:39:28.754Z,84.05
2016-02-19T04:40:28.774Z,84.14
2016-02-19T04:41:28.760Z,84.05
2016-02-19T04:42:28.763Z,84.14
2016-02-19T04:43:28.766Z,84.05
2016-02-19T04:44:28.768Z,83.76
2016-02-19T04:45:28.755Z,83.76
2016-02-19T04:46:28.774Z,84.05
2016-02-19T04:47:28.760Z,84.33
2016-02-19T04:48:28.748Z,84.33
2016-02-19T04:49:28.750Z,84.42
2016-02-19T04:50:28.768Z,84.66
2016-02-19T04:51:28.756Z,84.28
2016-02-19T04:52:28.743Z,84.19
2016-02-19T04:53:28.746Z,84.19
2016-02-19T04:54:28.748Z,84.05
2016-02-19T04:55:28.750Z,84.23
2016-02-19T04:56:28.754Z,84.19
2016-02-19T04:57:28.740Z,84.14
2016-02-19T04:58:28.743Z,84.47
2016-02-19T04:59:28.745Z,84.05
2016-02-19T05:00:28.748Z,84.47
2016-02-19T05:01:28.736Z,84.28
2016-02-19T05:02:28.738Z,84.09
2016-02-19T05:03:28.742Z,84.14
2016-02-19T05:04:28.744Z,84.19
2016-02-19T05:05:28.746Z,84.09
2016-02-19T05:06:28.750Z,84.47
2016-02-19T05:07:28.752Z,84.47
2016-02-19T05:08:28.739Z,84.09
2016-02-19T05:09:28.757Z,84
2016-02-19T05:10:28.744Z,84
2016-02-19T05:11:28.732Z,83.9
2016-02-19T05:12:28.749Z,84
2016-02-19T05:13:28.738Z,84
2016-02-19T05:14:28.740Z,84.19
2016-02-19T05:15:28.742Z,84.19
2016-02-19T05:16:28.746Z,84.09
2016-02-19T05:17:28.748Z,84.09
2016-02-19T05:18:28.751Z,84.38
2016-02-19T05:19:28.737Z,83.52
2016-02-19T05:20:28.740Z,83.9
2016-02-19T05:21:28.712Z,83.71
2016-02-19T05:22:28.699Z,83.71
2016-02-19T05:23:28.686Z,83.71
2016-02-19T05:24:28.673Z,83.71
2016-02-19T05:25:28.644Z,83.62
2016-02-19T05:26:28.641Z,83.71
2016-02-19T05:27:28.481Z,83.71
2016-02-19T05:28:28.634Z,84
2016-02-19T05:29:28.616Z,84
2016-02-19T05:30:28.613Z,83.71
2016-02-19T05:31:28.629Z,84.09
2016-02-19T05:32:28.614Z,83.71
2016-02-19T05:33:28.615Z,83.71
2016-02-19T05:34:28.600Z,84
2016-02-19T05:35:28.600Z,83.71
2016-02-19T05:36:28.602Z,83.71
2016-02-19T05:37:28.589Z,83.52
2016-02-19T05:38:28.606Z,83.52
2016-02-19T05:39:28.608Z,83.62
2016-02-19T05:40:28.594Z,84.09
2016-02-19T05:41:28.598Z,84.09
2016-02-19T05:42:28.600Z,84
2016-02-19T05:43:28.603Z,83.62
2016-02-19T05:44:28.606Z,83.52
2016-02-19T05:45:28.608Z,83.52
2016-02-19T05:46:28.595Z,84.09
2016-02-19T05:47:28.614Z,83.62
2016-02-19T05:48:28.585Z,83.62
2016-02-19T05:49:28.588Z,83.71
2016-02-19T05:50:28.590Z,84
2016-02-19T05:51:28.594Z,83.62
2016-02-19T05:52:28.596Z,83.71
2016-02-19T05:53:28.599Z,84
2016-02-19T05:54:28.602Z,83.71
2016-02-19T05:55:28.588Z,83.71
2016-02-19T05:56:28.591Z,83.43
2016-02-19T05:57:28.609Z,83.52
2016-02-19T05:58:28.597Z,83.52
2016-02-19T05:59:28.599Z,83.81
2016-02-19T06:00:28.601Z,83.81
2016-02-19T06:01:28.573Z,83.62
2016-02-19T06:02:28.591Z,83.81
2016-02-19T06:03:28.579Z,83.62
2016-02-19T06:04:28.597Z,83.71
2016-02-19T06:05:28.443Z,83.71
2016-02-19T06:06:28.578Z,83.81
2016-02-19T06:07:28.596Z,83.9
2016-02-19T06:08:28.583Z,83.81
2016-02-19T06:09:28.586Z,83.24
2016-02-19T06:10:28.588Z,83.33
2016-02-19T06:11:28.576Z,83.33
2016-02-19T06:12:28.578Z,83.43
2016-02-19T06:13:28.581Z,83.43
2016-02-19T06:14:28.583Z,83.24
2016-02-19T06:15:28.571Z,83.52
2016-02-19T06:16:28.589Z,83.71
2016-02-19T06:17:28.576Z,83.71
2016-02-19T06:18:28.580Z,83.71
2016-02-19T06:19:28.582Z,83.71
2016-02-19T06:20:28.584Z,83.52
2016-02-19T06:21:28.571Z,83.52
2016-02-19T06:22:28.590Z,83.52
2016-02-19T06:23:28.576Z,83.52
2016-02-19T06:24:28.579Z,83.52
2016-02-19T06:25:28.582Z,83.71
2016-02-19T06:26:28.585Z,83.43
2016-02-19T06:27:28.571Z,83.71
2016-02-19T06:28:28.574Z,83.52
2016-02-19T06:29:28.577Z,83.52
2016-02-19T06:30:28.564Z,83.71
2016-02-19T06:31:28.582Z,83.52
2016-02-19T06:32:28.570Z,83.52
2016-02-19T06:33:28.572Z,83.43
2016-02-19T06:34:28.575Z,83.43
2016-02-19T06:35:28.577Z,83.52
2016-02-19T06:36:28.565Z,83.52
2016-02-19T06:37:28.567Z,83.71
2016-02-19T06:38:28.570Z,83.52
2016-02-19T06:39:28.573Z,83.52
2016-02-19T06:40:28.576Z,83.62
2016-02-19T06:41:28.562Z,83.71
2016-02-19T06:42:28.565Z,83.24
2016-02-19T06:43:28.567Z,83.52
2016-02-19T06:46:03.904Z,83.71
2016-02-19T06:47:03.908Z,83.71
2016-02-19T06:48:03.925Z,83.71
2016-02-19T06:49:03.897Z,83.33
2016-02-19T06:50:03.899Z,83.33
2016-02-19T06:51:03.902Z,83.43
2016-02-19T06:52:03.905Z,83.71
2016-02-19T06:53:03.891Z,83.71
2016-02-19T06:54:03.895Z,83.81
2016-02-19T06:55:03.897Z,83.81
2016-02-19T06:56:03.900Z,83.71
2016-02-19T06:57:03.902Z,83.71
2016-02-19T06:58:03.890Z,83.43
2016-02-19T06:59:03.893Z,83.33
2016-02-19T07:00:03.895Z,83.71
2016-02-19T07:01:03.898Z,83.52
2016-02-19T07:02:03.885Z,83.52
2016-02-19T07:03:03.918Z,83.52
2016-02-19T07:04:03.890Z,83.52
2016-02-19T07:05:03.898Z,83.52
2016-02-19T07:06:03.932Z,83.71
2016-02-19T07:07:03.903Z,83.43
2016-02-19T07:08:03.890Z,83.33
2016-02-19T07:09:03.893Z,83.62
2016-02-19T07:10:03.895Z,83.81
2016-02-19T07:11:03.883Z,83.71
2016-02-19T07:12:03.886Z,83.62
2016-02-19T07:13:03.888Z,83.85
2016-02-19T07:14:03.891Z,83.52
2016-02-19T07:15:03.877Z,83.81
2016-02-19T07:16:03.897Z,83.94
2016-02-19T07:17:03.883Z,83.85
2016-02-19T07:18:03.885Z,83.37
2016-02-19T07:19:03.888Z,83.56
2016-02-19T07:20:03.891Z,83.85
2016-02-19T07:21:03.894Z,83.85
2016-02-19T07:22:03.897Z,83.85
2016-02-19T07:23:03.900Z,83.56
2016-02-19T07:24:03.886Z,83.75
2016-02-19T07:25:03.873Z,83.85
2016-02-19T07:26:03.908Z,83.66
2016-02-19T07:27:03.879Z,83.56
2016-02-19T07:28:03.882Z,83.66
2016-02-19T07:29:03.884Z,83.37
2016-02-19T07:30:03.887Z,83.28
2016-02-19T07:31:03.874Z,83.09
2016-02-19T07:32:03.876Z,83
2016-02-19T07:33:03.896Z,82.9
2016-02-19T07:34:03.882Z,83.18
2016-02-19T07:35:03.884Z,83.18
2016-02-19T07:36:03.887Z,83
2016-02-19T07:37:03.875Z,83
2016-02-19T07:38:03.878Z,83.09
2016-02-19T07:39:03.880Z,82.71
2016-02-19T07:40:03.883Z,82.71
2016-02-19T07:41:03.870Z,82.81
2016-02-19T07:42:03.872Z,82.71
2016-02-19T07:43:03.891Z,82.81
2016-02-19T07:44:03.878Z,82.81
2016-02-19T07:45:03.880Z,82.43
2016-02-19T07:46:03.867Z,82.52
2016-02-19T07:47:03.870Z,82.56
2016-02-19T07:48:03.873Z,82.09
2016-02-19T07:49:03.875Z,82.09
2016-02-19T07:50:03.877Z,82.18
2016-02-19T07:51:03.866Z,82.47
2016-02-19T07:52:03.868Z,81.52
2016-02-19T07:53:03.871Z,81.71
2016-02-19T07:54:03.874Z,81.52
2016-02-19T07:55:03.876Z,81.24
2016-02-19T07:56:03.707Z,80.86
2016-02-19T07:57:03.882Z,80.67
2016-02-19T07:58:03.869Z,80.44
2016-02-19T07:59:03.871Z,80.48
2016-02-19T08:00:03.874Z,80.48
2016-02-19T08:01:03.860Z,80.48
2016-02-19T08:02:03.879Z,80.67
2016-02-19T08:03:03.866Z,80.76
2016-02-19T08:04:03.868Z,80.67
2016-02-19T08:05:03.877Z,80.38
2016-02-19T08:06:03.864Z,80.1
2016-02-19T08:07:03.867Z,80.19
2016-02-19T08:08:03.869Z,80.1
2016-02-19T08:09:03.872Z,80.29
2016-02-19T08:10:03.889Z,80.19
2016-02-19T08:11:03.861Z,80.29
2016-02-19T08:12:03.864Z,80.1
2016-02-19T08:13:03.898Z,79.82
2016-02-19T08:14:03.869Z,79.91
2016-02-19T08:15:03.872Z,79.25
2016-02-19T08:16:03.859Z,79.25
2016-02-19T08:17:03.862Z,79.72
2016-02-19T08:18:03.896Z,79.82
2016-02-19T08:19:03.851Z,79.91
2016-02-19T08:20:03.870Z,79.63
2016-02-19T08:21:03.857Z,79.06
2016-02-19T08:22:03.860Z,79.25
2016-02-19T08:23:03.863Z,79.06
2016-02-19T08:24:03.865Z,78.96
2016-02-19T08:25:03.868Z,78.87
2016-02-19T08:26:03.855Z,78.87
2016-02-19T08:27:03.857Z,78.3
2016-02-19T08:28:03.860Z,78.58
2016-02-19T08:29:03.862Z,78.49
2016-02-19T08:30:03.866Z,78.58
2016-02-19T08:31:03.868Z,78.67
2016-02-19T08:32:03.871Z,78.11
2016-02-19T08:33:03.859Z,78.02
2016-02-19T08:34:03.861Z,78.2
2016-02-19T08:35:03.864Z,78.11
2016-02-19T08:36:03.851Z,78.11
2016-02-19T08:37:03.854Z,78.2
2016-02-19T08:38:03.856Z,78.02
2016-02-19T08:39:03.858Z,78.2
2016-02-19T08:40:03.861Z,77.92
2016-02-19T08:41:03.848Z,77.83
2016-02-19T08:42:03.866Z,78.02
2016-02-19T08:43:03.854Z,78.02
2016-02-19T08:44:03.872Z,78.2
2016-02-19T08:45:03.859Z,77.73
2016-02-19T08:46:03.846Z,78.05
2016-02-19T08:47:03.864Z,77.39
2016-02-19T08:48:03.852Z,77.48
2016-02-19T08:49:03.855Z,77.86
2016-02-19T08:50:03.857Z,76.92
2016-02-19T08:51:03.844Z,77.2
2016-02-19T08:52:03.846Z,76.73
2016-02-19T08:53:03.866Z,76.44
2016-02-19T08:54:03.852Z,75.87
2016-02-19T08:55:03.855Z,76.06
2016-02-19T08:56:03.857Z,76.15
2016-02-19T08:57:03.860Z,75.78
2016-02-19T08:58:03.863Z,75.59
2016-02-19T08:59:03.865Z,75.4
2016-02-19T09:00:03.868Z,75.78
2016-02-19T09:01:03.840Z,75.78
2016-02-19T09:02:03.857Z,75.87
2016-02-19T09:03:03.845Z,75.49
2016-02-19T09:04:03.848Z,75.11
2016-02-19T09:05:03.851Z,75.31
2016-02-19T09:06:03.853Z,75.4
2016-02-19T09:07:03.856Z,75.31
2016-02-19T09:08:03.859Z,75.26
2016-02-19T09:09:03.845Z,74.88
2016-02-19T09:10:03.848Z,74.88
2016-02-19T09:11:03.851Z,75.45
2016-02-19T09:12:03.854Z,75.55
2016-02-19T09:13:03.856Z,75.64
2016-02-19T09:14:03.859Z,75.45
2016-02-19T09:15:03.846Z,75.36
2016-02-19T09:16:03.849Z,75.45
2016-02-19T09:17:03.851Z,74.79
2016-02-19T09:18:03.855Z,74.98
2016-02-19T09:19:03.857Z,74.88
2016-02-19T09:20:03.859Z,74.83
2016-02-19T09:21:03.846Z,75.17
2016-02-19T09:22:03.849Z,75.4
2016-02-19T09:23:03.852Z,75.36
2016-02-19T09:24:03.855Z,75.31
2016-02-19T09:25:03.857Z,75.31
2016-02-19T09:26:03.844Z,74.54
2016-02-19T09:27:03.846Z,74.83
2016-02-19T09:28:03.850Z,74.92
2016-02-19T09:29:03.852Z,75.02
2016-02-19T09:30:03.854Z,75.02
2016-02-19T09:31:03.842Z,74.83
2016-02-19T09:32:03.845Z,74.83
2016-02-19T09:33:03.848Z,75.02
2016-02-19T09:34:03.851Z,74.45
2016-02-19T09:35:03.853Z,74.54
2016-02-19T09:36:03.856Z,74.54
2016-02-19T09:37:03.842Z,74.45
2016-02-19T09:38:03.846Z,74.07
2016-02-19T09:39:03.848Z,73.79
2016-02-19T09:40:03.850Z,73.88
2016-02-19T09:41:03.853Z,73.88
2016-02-19T09:42:03.856Z,73.5
2016-02-19T09:43:03.842Z,73.03
2016-02-19T09:44:03.846Z,73.16
2016-02-19T09:45:03.848Z,72.97
2016-02-19T09:46:03.850Z,73.16
2016-02-19T09:47:03.838Z,72.68
2016-02-19T09:48:03.841Z,72.3
2016-02-19T09:49:03.859Z,72.08
2016-02-19T09:50:03.861Z,72.08
2016-02-19T09:51:03.864Z,72.27
2016-02-19T09:52:03.852Z,72.17
2016-02-19T09:53:03.869Z,72.84
2016-02-19T09:54:03.842Z,72.55
2016-02-19T09:55:03.844Z,72.55
2016-02-19T09:56:03.846Z,72.55
2016-02-19T09:57:03.849Z,72.84
2016-02-19T09:58:03.852Z,73.03
2016-02-19T09:59:03.840Z,72.45
2016-02-19T10:00:03.842Z,72.36
2016-02-19T10:01:03.860Z,72.84
2016-02-19T10:02:03.832Z,72.27
2016-02-19T10:03:03.850Z,71.98
2016-02-19T10:04:03.853Z,72.17
2016-02-19T10:05:03.840Z,71.6
2016-02-19T10:06:03.858Z,71.92
2016-02-19T10:07:03.846Z,71.8
2016-02-19T10:08:03.848Z,71.8
2016-02-19T10:09:03.851Z,71.41
2016-02-19T10:10:03.853Z,71.41
2016-02-19T10:11:03.856Z,70.94
2016-02-19T10:12:03.842Z,71.03
2016-02-19T10:13:03.846Z,71.03
2016-02-19T10:14:03.848Z,70.84
2016-02-19T10:15:03.851Z,71.22
2016-02-19T10:16:03.853Z,70.94
2016-02-19T10:17:03.856Z,71.03
2016-02-19T10:18:03.859Z,70.94
2016-02-19T10:19:03.846Z,71.13
2016-02-19T10:20:03.849Z,70.75
2016-02-19T10:21:03.852Z,70.94
2016-02-19T10:22:03.838Z,70.65
2016-02-19T10:23:03.873Z,70.47
2016-02-19T10:24:03.860Z,70.65
2016-02-19T10:25:03.846Z,70.56
2016-02-19T10:26:03.850Z,70.47
2016-02-19T10:27:03.852Z,70.65
2016-02-19T10:28:03.855Z,70.18
2016-02-19T10:29:03.857Z,70.65
2016-02-19T10:30:03.844Z,70.09
2016-02-19T10:31:03.847Z,70.28
2016-02-19T10:32:03.850Z,70.18
2016-02-19T10:33:03.838Z,70.37
2016-02-19T10:34:03.855Z,70.28
2016-02-19T10:35:03.873Z,70.09
2016-02-19T10:36:03.845Z,70.09
2016-02-19T10:37:03.863Z,70.28
2016-02-19T10:38:03.850Z,70.37
2016-02-19T10:39:03.853Z,70.28
2016-02-19T10:40:03.856Z,69.74
2016-02-19T10:41:03.858Z,69.71
2016-02-19T10:42:03.846Z,69.84
2016-02-19T10:43:03.864Z,70.03
2016-02-19T10:44:03.850Z,69.65
2016-02-19T10:45:03.854Z,69.65
2016-02-19T10:46:03.856Z,69.46
2016-02-19T10:47:03.859Z,69.55
2016-02-19T10:48:03.846Z,68.51
2016-02-19T10:49:03.849Z,68.35
2016-02-19T10:50:03.852Z,68.07
2016-02-19T10:51:03.855Z,68.07
2016-02-19T10:52:03.858Z,67.02
2016-02-19T10:53:03.860Z,66.2
2016-02-19T10:54:03.847Z,66.01
2016-02-19T10:55:03.866Z,65.54
2016-02-19T10:56:03.868Z,65.16
2016-02-19T10:57:03.854Z,64.78
2016-02-19T10:58:03.857Z,64.11
2016-02-19T10:59:03.860Z,64.11
2016-02-19T11:00:03.847Z,63.92
2016-02-19T11:01:03.850Z,63.45
2016-02-19T11:02:03.852Z,63.26
2016-02-19T11:03:03.854Z,62.88
2016-02-19T11:04:03.858Z,62.88
2016-02-19T11:05:03.845Z,63.35
2016-02-19T11:06:03.847Z,62.88
2016-02-19T11:07:03.866Z,62.75
2016-02-19T11:08:03.868Z,62.66
2016-02-19T11:09:03.856Z,62.75
2016-02-19T11:10:03.859Z,63.13
2016-02-19T11:11:03.861Z,63.13
2016-02-19T11:12:03.864Z,63.04
2016-02-19T11:13:03.867Z,63.13
2016-02-19T11:14:03.853Z,63.23
2016-02-19T11:15:03.856Z,63.04
2016-02-19T11:16:03.859Z,63.42
2016-02-19T11:17:03.862Z,63.51
2016-02-19T11:18:03.864Z,63.89
2016-02-19T11:19:03.867Z,63.7
2016-02-19T11:20:03.870Z,63.7
2016-02-19T11:21:03.856Z,63.51
2016-02-19T11:22:03.859Z,63.6
2016-02-19T11:23:03.861Z,63.42
2016-02-19T11:24:03.880Z,63.7
2016-02-19T11:25:03.867Z,63.98
2016-02-19T11:26:03.870Z,63.42
2016-02-19T11:27:03.857Z,63.51
2016-02-19T11:28:03.860Z,63.6
2016-02-19T11:29:03.863Z,63.7
2016-02-19T11:30:03.880Z,63.51
2016-02-19T11:31:03.868Z,63.42
2016-02-19T11:32:03.855Z,63.13
2016-02-19T11:33:03.873Z,62.94
2016-02-19T11:34:03.860Z,63.04
2016-02-19T11:35:03.957Z,62.85
2016-02-19T11:36:03.865Z,62.94
2016-02-19T11:37:03.869Z,63.13
2016-02-19T11:38:03.871Z,63.13
2016-02-19T11:39:03.873Z,63.04
2016-02-19T11:40:03.877Z,62.85
2016-02-19T11:41:03.864Z,62.75
2016-02-19T11:42:03.866Z,62.75
2016-02-19T11:43:03.869Z,62.85
2016-02-19T11:44:03.872Z,62.94
2016-02-19T11:45:03.858Z,62.85
2016-02-19T11:46:03.878Z,62.75
2016-02-19T11:47:03.880Z,62.56
2016-02-19T11:48:03.866Z,62.72
2016-02-19T11:49:03.870Z,62.66
2016-02-19T11:50:03.872Z,62.75
2016-02-19T11:51:03.874Z,62.75
2016-02-19T11:52:03.861Z,62.75
2016-02-19T11:53:03.864Z,62.94
2016-02-19T11:54:03.867Z,62.66
2016-02-19T11:55:03.870Z,62.66
2016-02-19T11:56:03.872Z,62.46
2016-02-19T11:57:03.875Z,62.66
2016-02-19T11:58:03.878Z,62.66
2016-02-19T11:59:03.880Z,62.46
2016-02-19T12:00:03.868Z,63.2
2016-02-19T12:01:03.871Z,62.46
2016-02-19T12:02:03.873Z,62.75
2016-02-19T12:03:03.877Z,62.18
2016-02-19T12:04:03.879Z,62.37
2016-02-19T12:05:03.882Z,62.85
2016-02-19T12:06:03.885Z,62.43
2016-02-19T12:07:03.871Z,62.46
2016-02-19T12:08:03.874Z,62.56
2016-02-19T12:09:03.876Z,61.99
2016-02-19T12:10:03.879Z,62.08
2016-02-19T12:11:03.881Z,62.27
2016-02-19T12:12:03.885Z,62.18
2016-02-19T12:13:03.871Z,62.18
2016-02-19T12:14:03.873Z,62.18
2016-02-19T12:15:03.893Z,62.18
2016-02-19T12:16:03.879Z,62.27
2016-02-19T12:17:03.881Z,62.37
2016-02-19T12:18:03.885Z,62.56
2016-02-19T12:19:03.887Z,62.56
2016-02-19T12:20:03.890Z,62.56
2016-02-19T12:21:03.893Z,62.08
2016-02-19T12:22:03.880Z,61.8
2016-02-19T12:23:03.883Z,61.55
2016-02-19T12:24:03.729Z,61.07
2016-02-19T12:25:03.888Z,61.07
2016-02-19T12:26:03.874Z,60.41
2016-02-19T12:27:03.893Z,60.16
2016-02-19T12:28:03.880Z,59.11
2016-02-19T12:29:03.883Z,58.54
2016-02-19T12:30:03.886Z,58.73
2016-02-19T12:31:03.888Z,57.68
2016-02-19T12:32:03.891Z,57.4
2016-02-19T12:33:03.894Z,56.83
2016-02-19T12:34:03.896Z,57.04
2016-02-19T12:35:03.884Z,56.48
2016-02-19T12:36:03.887Z,55.71
2016-02-19T12:37:03.890Z,55.81
2016-02-19T12:38:03.892Z,54.96
2016-02-19T12:39:03.879Z,55.24
2016-02-19T12:40:03.898Z,55.24
2016-02-19T12:41:03.884Z,54.86
2016-02-19T12:42:03.902Z,54.57
2016-02-19T12:43:03.890Z,54.96
2016-02-19T12:44:03.892Z,55.15
2016-02-19T12:45:03.895Z,54.93
2016-02-19T12:46:03.898Z,55.4
2016-02-19T12:47:03.900Z,55.69
2016-02-19T12:48:03.903Z,56.07
2016-02-19T12:49:03.890Z,55.97
2016-02-19T12:50:03.892Z,55.85
2016-02-19T12:51:03.895Z,55.94
2016-02-19T12:52:03.898Z,56.13
2016-02-19T12:53:03.900Z,56.51
2016-02-19T12:54:03.889Z,56.61
2016-02-19T12:55:03.906Z,57.24
2016-02-19T12:56:03.893Z,58.1
2016-02-19T12:57:03.911Z,58.2